sensor_id;sensor_type;location;lat;lon;timestamp;P1;durP1;ratioP1;P2;durP2;ratioP2
44850;SDS011;30583;48.714;9.386;2022-12-05T00:03:46;19.58;;;11.18;;
44850;SDS011;30583;48.714;9.386;2022-12-05T00:06:13;19.23;;;11.75;;
44850;SDS011;30583;48.714;9.386;2022-12-05T00:08:39;21.30;;;11.25;;
44850;SDS011;30583;48.714;9.386;2022-12-05T00:11:09;20.23;;;11.30;;
44850;SDS011;30583;48.714;9.386;2022-12-05T00:16:12;20.88;;;11.82;;
44850;SDS011;30583;48.714;9.386;2022-12-05T00:18:40;21.88;;;11.95;;
44850;SDS011;30583;48.714;9.386;2022-12-05T00:21:06;22.52;;;12.70;;
44850;SDS011;30583;48.714;9.386;2022-12-05T00:23:36;24.05;;;12.48;;
44850;SDS011;30583;48.714;9.386;2022-12-05T00:26:02;18.48;;;10.77;;
44850;SDS011;30583;48.714;9.386;2022-12-05T00:28:29;22.75;;;11.85;;
44850;SDS011;30583;48.714;9.386;2022-12-05T00:30:56;21.38;;;10.98;;
44850;SDS011;30583;48.714;9.386;2022-12-05T00:33:22;19.30;;;10.55;;
44850;SDS011;30583;48.714;9.386;2022-12-05T00:35:47;17.65;;;10.57;;
44850;SDS011;30583;48.714;9.386;2022-12-05T00:38:13;20.05;;;10.30;;
44850;SDS011;30583;48.714;9.386;2022-12-05T00:40:38;17.27;;;9.82;;
44850;SDS011;30583;48.714;9.386;2022-12-05T00:43:04;18.88;;;10.57;;
44850;SDS011;30583;48.714;9.386;2022-12-05T00:45:30;21.13;;;11.20;;
44850;SDS011;30583;48.714;9.386;2022-12-05T00:47:55;18.73;;;10.45;;
44850;SDS011;30583;48.714;9.386;2022-12-05T00:50:21;19.30;;;11.48;;
44850;SDS011;30583;48.714;9.386;2022-12-05T00:52:46;19.23;;;10.95;;
44850;SDS011;30583;48.714;9.386;2022-12-05T00:55:12;21.80;;;11.27;;
44850;SDS011;30583;48.714;9.386;2022-12-05T00:57:37;19.27;;;12.05;;
44850;SDS011;30583;48.714;9.386;2022-12-05T01:00:04;20.55;;;11.65;;
44850;SDS011;30583;48.714;9.386;2022-12-05T01:02:30;19.98;;;11.13;;
44850;SDS011;30583;48.714;9.386;2022-12-05T01:04:56;21.92;;;11.75;;
44850;SDS011;30583;48.714;9.386;2022-12-05T01:07:21;19.17;;;11.02;;
44850;SDS011;30583;48.714;9.386;2022-12-05T01:09:47;19.67;;;12.05;;
44850;SDS011;30583;48.714;9.386;2022-12-05T01:12:12;20.42;;;11.00;;
44850;SDS011;30583;48.714;9.386;2022-12-05T01:14:38;20.05;;;11.18;;
44850;SDS011;30583;48.714;9.386;2022-12-05T01:17:03;19.75;;;11.35;;
44850;SDS011;30583;48.714;9.386;2022-12-05T01:19:30;19.05;;;11.10;;
44850;SDS011;30583;48.714;9.386;2022-12-05T01:21:56;19.45;;;10.98;;
44850;SDS011;30583;48.714;9.386;2022-12-05T01:24:22;18.35;;;10.50;;
44850;SDS011;30583;48.714;9.386;2022-12-05T01:26:49;18.05;;;10.38;;
44850;SDS011;30583;48.714;9.386;2022-12-05T01:29:16;17.60;;;10.25;;
44850;SDS011;30583;48.714;9.386;2022-12-05T01:31:43;19.70;;;10.23;;
44850;SDS011;30583;48.714;9.386;2022-12-05T01:34:09;19.58;;;11.13;;
44850;SDS011;30583;48.714;9.386;2022-12-05T01:36:36;19.23;;;10.43;;
44850;SDS011;30583;48.714;9.386;2022-12-05T01:39:03;21.30;;;10.35;;
44850;SDS011;30583;48.714;9.386;2022-12-05T01:41:30;19.05;;;10.52;;
44850;SDS011;30583;48.714;9.386;2022-12-05T01:46:26;20.05;;;10.57;;
44850;SDS011;30583;48.714;9.386;2022-12-05T01:48:55;17.95;;;10.30;;
44850;SDS011;30583;48.714;9.386;2022-12-05T01:51:28;19.95;;;10.70;;
44850;SDS011;30583;48.714;9.386;2022-12-05T01:53:54;20.17;;;11.30;;
44850;SDS011;30583;48.714;9.386;2022-12-05T01:56:20;20.08;;;11.55;;
44850;SDS011;30583;48.714;9.386;2022-12-05T01:58:45;20.15;;;11.18;;
44850;SDS011;30583;48.714;9.386;2022-12-05T02:01:12;23.00;;;11.77;;
44850;SDS011;30583;48.714;9.386;2022-12-05T02:03:40;20.92;;;10.73;;
44850;SDS011;30583;48.714;9.386;2022-12-05T02:06:10;19.67;;;11.20;;
44850;SDS011;30583;48.714;9.386;2022-12-05T02:08:37;21.80;;;10.27;;
44850;SDS011;30583;48.714;9.386;2022-12-05T02:11:04;22.67;;;11.10;;
44850;SDS011;30583;48.714;9.386;2022-12-05T02:24:54;20.48;;;10.63;;
44850;SDS011;30583;48.714;9.386;2022-12-05T02:28:02;22.20;;;11.65;;
44850;SDS011;30583;48.714;9.386;2022-12-05T02:30:57;22.75;;;10.80;;
44850;SDS011;30583;48.714;9.386;2022-12-05T02:33:32;22.73;;;11.00;;
44850;SDS011;30583;48.714;9.386;2022-12-05T02:36:24;20.48;;;11.80;;
44850;SDS011;30583;48.714;9.386;2022-12-05T02:44:09;20.48;;;10.48;;
44850;SDS011;30583;48.714;9.386;2022-12-05T02:46:40;18.92;;;10.93;;
44850;SDS011;30583;48.714;9.386;2022-12-05T02:49:08;21.30;;;11.60;;
44850;SDS011;30583;48.714;9.386;2022-12-05T02:51:55;22.58;;;11.13;;
44850;SDS011;30583;48.714;9.386;2022-12-05T02:54:24;22.00;;;10.57;;
44850;SDS011;30583;48.714;9.386;2022-12-05T02:56:54;20.83;;;11.93;;
44850;SDS011;30583;48.714;9.386;2022-12-05T02:59:21;23.08;;;11.77;;
44850;SDS011;30583;48.714;9.386;2022-12-05T03:01:46;21.52;;;11.15;;
44850;SDS011;30583;48.714;9.386;2022-12-05T03:04:13;21.25;;;11.50;;
44850;SDS011;30583;48.714;9.386;2022-12-05T03:06:41;26.70;;;11.85;;
44850;SDS011;30583;48.714;9.386;2022-12-05T03:09:15;20.23;;;10.82;;
44850;SDS011;30583;48.714;9.386;2022-12-05T03:11:47;24.42;;;12.88;;
44850;SDS011;30583;48.714;9.386;2022-12-05T03:14:18;23.85;;;12.25;;
44850;SDS011;30583;48.714;9.386;2022-12-05T03:16:50;22.83;;;12.35;;
44850;SDS011;30583;48.714;9.386;2022-12-05T03:20:07;22.70;;;12.50;;
44850;SDS011;30583;48.714;9.386;2022-12-05T03:22:29;22.63;;;11.65;;
44850;SDS011;30583;48.714;9.386;2022-12-05T03:25:00;22.98;;;11.75;;
44850;SDS011;30583;48.714;9.386;2022-12-05T03:30:52;22.00;;;11.23;;
44850;SDS011;30583;48.714;9.386;2022-12-05T03:33:19;22.95;;;11.68;;
44850;SDS011;30583;48.714;9.386;2022-12-05T03:39:07;24.80;;;12.33;;
44850;SDS011;30583;48.714;9.386;2022-12-05T03:41:43;29.52;;;13.43;;
44850;SDS011;30583;48.714;9.386;2022-12-05T03:49:28;21.35;;;11.85;;
44850;SDS011;30583;48.714;9.386;2022-12-05T03:52:13;24.95;;;12.50;;
44850;SDS011;30583;48.714;9.386;2022-12-05T03:54:56;22.88;;;12.65;;
44850;SDS011;30583;48.714;9.386;2022-12-05T03:58:11;26.58;;;12.27;;
44850;SDS011;30583;48.714;9.386;2022-12-05T04:00:21;26.52;;;12.05;;
44850;SDS011;30583;48.714;9.386;2022-12-05T04:05:21;23.40;;;11.50;;
44850;SDS011;30583;48.714;9.386;2022-12-05T04:07:54;22.10;;;12.50;;
44850;SDS011;30583;48.714;9.386;2022-12-05T04:10:28;23.08;;;12.07;;
44850;SDS011;30583;48.714;9.386;2022-12-05T04:12:58;21.30;;;12.73;;
44850;SDS011;30583;48.714;9.386;2022-12-05T04:15:42;23.85;;;12.00;;
44850;SDS011;30583;48.714;9.386;2022-12-05T04:18:31;23.70;;;11.70;;
44850;SDS011;30583;48.714;9.386;2022-12-05T04:20:58;22.92;;;11.82;;
44850;SDS011;30583;48.714;9.386;2022-12-05T04:23:45;23.75;;;11.93;;
44850;SDS011;30583;48.714;9.386;2022-12-05T04:26:31;22.55;;;11.88;;
44850;SDS011;30583;48.714;9.386;2022-12-05T04:28:58;30.23;;;15.48;;
44850;SDS011;30583;48.714;9.386;2022-12-05T04:31:42;25.42;;;15.43;;
44850;SDS011;30583;48.714;9.386;2022-12-05T04:34:13;39.08;;;19.02;;
44850;SDS011;30583;48.714;9.386;2022-12-05T04:39:33;23.55;;;12.10;;
44850;SDS011;30583;48.714;9.386;2022-12-05T04:42:29;23.13;;;13.27;;
44850;SDS011;30583;48.714;9.386;2022-12-05T04:45:06;23.17;;;11.82;;
44850;SDS011;30583;48.714;9.386;2022-12-05T04:47:40;22.10;;;11.63;;
44850;SDS011;30583;48.714;9.386;2022-12-05T04:50:10;23.33;;;12.70;;
44850;SDS011;30583;48.714;9.386;2022-12-05T04:52:39;26.83;;;12.88;;
44850;SDS011;30583;48.714;9.386;2022-12-05T04:55:09;24.08;;;12.48;;
44850;SDS011;30583;48.714;9.386;2022-12-05T05:00:53;21.83;;;11.50;;
44850;SDS011;30583;48.714;9.386;2022-12-05T05:03:31;25.98;;;11.50;;
44850;SDS011;30583;48.714;9.386;2022-12-05T05:06:07;22.27;;;12.00;;
44850;SDS011;30583;48.714;9.386;2022-12-05T05:08:35;23.92;;;11.68;;
44850;SDS011;30583;48.714;9.386;2022-12-05T05:11:21;19.58;;;11.07;;
44850;SDS011;30583;48.714;9.386;2022-12-05T05:13:52;23.45;;;12.48;;
44850;SDS011;30583;48.714;9.386;2022-12-05T05:16:21;24.38;;;12.45;;
44850;SDS011;30583;48.714;9.386;2022-12-05T05:18:49;26.10;;;11.27;;
44850;SDS011;30583;48.714;9.386;2022-12-05T05:23:51;24.70;;;12.50;;
44850;SDS011;30583;48.714;9.386;2022-12-05T05:26:17;21.52;;;10.95;;
44850;SDS011;30583;48.714;9.386;2022-12-05T05:28:43;23.10;;;11.85;;
44850;SDS011;30583;48.714;9.386;2022-12-05T05:31:10;25.50;;;13.15;;
44850;SDS011;30583;48.714;9.386;2022-12-05T05:33:36;31.17;;;13.80;;
44850;SDS011;30583;48.714;9.386;2022-12-05T05:36:06;54.83;;;28.77;;
44850;SDS011;30583;48.714;9.386;2022-12-05T05:38:36;58.25;;;37.67;;
44850;SDS011;30583;48.714;9.386;2022-12-05T05:41:03;49.20;;;28.83;;
44850;SDS011;30583;48.714;9.386;2022-12-05T05:43:29;45.85;;;25.92;;
44850;SDS011;30583;48.714;9.386;2022-12-05T05:45:55;30.00;;;18.15;;
44850;SDS011;30583;48.714;9.386;2022-12-05T05:48:21;28.55;;;17.83;;
44850;SDS011;30583;48.714;9.386;2022-12-05T05:50:46;27.02;;;15.57;;
44850;SDS011;30583;48.714;9.386;2022-12-05T05:53:12;24.20;;;13.32;;
44850;SDS011;30583;48.714;9.386;2022-12-05T05:55:38;24.30;;;13.40;;
44850;SDS011;30583;48.714;9.386;2022-12-05T05:58:04;34.13;;;18.58;;
44850;SDS011;30583;48.714;9.386;2022-12-05T06:00:30;26.35;;;14.07;;
44850;SDS011;30583;48.714;9.386;2022-12-05T06:02:55;27.95;;;14.45;;
44850;SDS011;30583;48.714;9.386;2022-12-05T06:05:21;25.10;;;13.85;;
44850;SDS011;30583;48.714;9.386;2022-12-05T06:07:47;25.33;;;15.63;;
44850;SDS011;30583;48.714;9.386;2022-12-05T06:10:12;25.05;;;16.50;;
44850;SDS011;30583;48.714;9.386;2022-12-05T06:12:38;22.40;;;14.05;;
44850;SDS011;30583;48.714;9.386;2022-12-05T06:15:03;24.75;;;13.77;;
44850;SDS011;30583;48.714;9.386;2022-12-05T06:17:29;26.05;;;14.50;;
44850;SDS011;30583;48.714;9.386;2022-12-05T06:19:55;26.83;;;14.00;;
44850;SDS011;30583;48.714;9.386;2022-12-05T06:22:21;23.85;;;12.88;;
44850;SDS011;30583;48.714;9.386;2022-12-05T06:24:46;32.17;;;22.75;;
44850;SDS011;30583;48.714;9.386;2022-12-05T06:27:12;57.72;;;35.33;;
44850;SDS011;30583;48.714;9.386;2022-12-05T06:29:38;1079.97;;;467.75;;
44850;SDS011;30583;48.714;9.386;2022-12-05T06:32:03;1999.90;;;758.78;;
44850;SDS011;30583;48.714;9.386;2022-12-05T06:34:29;1999.90;;;739.00;;
44850;SDS011;30583;48.714;9.386;2022-12-05T06:36:56;1493.05;;;584.95;;
44850;SDS011;30583;48.714;9.386;2022-12-05T06:39:23;1186.25;;;499.67;;
44850;SDS011;30583;48.714;9.386;2022-12-05T06:41:48;1154.50;;;497.45;;
44850;SDS011;30583;48.714;9.386;2022-12-05T06:44:14;571.58;;;225.68;;
44850;SDS011;30583;48.714;9.386;2022-12-05T06:46:39;172.50;;;64.88;;
44850;SDS011;30583;48.714;9.386;2022-12-05T06:49:05;57.90;;;24.52;;
44850;SDS011;30583;48.714;9.386;2022-12-05T06:51:31;32.42;;;17.02;;
44850;SDS011;30583;48.714;9.386;2022-12-05T06:53:56;24.17;;;13.18;;
44850;SDS011;30583;48.714;9.386;2022-12-05T06:56:22;37.00;;;18.13;;
44850;SDS011;30583;48.714;9.386;2022-12-05T06:58:48;76.20;;;34.10;;
44850;SDS011;30583;48.714;9.386;2022-12-05T07:01:15;93.25;;;47.35;;
44850;SDS011;30583;48.714;9.386;2022-12-05T07:04:01;462.08;;;258.70;;
44850;SDS011;30583;48.714;9.386;2022-12-05T07:06:27;169.07;;;91.63;;
44850;SDS011;30583;48.714;9.386;2022-12-05T07:08:53;50.03;;;26.25;;
44850;SDS011;30583;48.714;9.386;2022-12-05T07:11:19;132.73;;;78.25;;
44850;SDS011;30583;48.714;9.386;2022-12-05T07:13:44;139.75;;;86.03;;
44850;SDS011;30583;48.714;9.386;2022-12-05T07:16:10;62.88;;;38.78;;
44850;SDS011;30583;48.714;9.386;2022-12-05T07:18:37;43.15;;;24.42;;
44850;SDS011;30583;48.714;9.386;2022-12-05T07:21:04;36.08;;;20.48;;
44850;SDS011;30583;48.714;9.386;2022-12-05T07:23:32;27.77;;;15.90;;
44850;SDS011;30583;48.714;9.386;2022-12-05T07:25:58;28.67;;;15.40;;
44850;SDS011;30583;48.714;9.386;2022-12-05T07:28:24;25.33;;;14.20;;
44850;SDS011;30583;48.714;9.386;2022-12-05T07:31:05;26.10;;;13.50;;
44850;SDS011;30583;48.714;9.386;2022-12-05T07:33:36;24.27;;;14.10;;
44850;SDS011;30583;48.714;9.386;2022-12-05T07:36:03;31.52;;;16.60;;
44850;SDS011;30583;48.714;9.386;2022-12-05T07:38:30;29.63;;;16.63;;
44850;SDS011;30583;48.714;9.386;2022-12-05T07:40:56;36.20;;;19.58;;
44850;SDS011;30583;48.714;9.386;2022-12-05T07:43:21;40.35;;;22.38;;
44850;SDS011;30583;48.714;9.386;2022-12-05T07:45:47;41.70;;;22.85;;
44850;SDS011;30583;48.714;9.386;2022-12-05T07:48:13;50.22;;;31.67;;
44850;SDS011;30583;48.714;9.386;2022-12-05T07:50:38;33.67;;;21.83;;
44850;SDS011;30583;48.714;9.386;2022-12-05T07:53:04;25.33;;;15.07;;
44850;SDS011;30583;48.714;9.386;2022-12-05T07:55:30;25.88;;;13.43;;
44850;SDS011;30583;48.714;9.386;2022-12-05T07:57:55;25.52;;;13.32;;
44850;SDS011;30583;48.714;9.386;2022-12-05T08:00:21;24.42;;;13.07;;
44850;SDS011;30583;48.714;9.386;2022-12-05T08:02:47;23.52;;;13.48;;
44850;SDS011;30583;48.714;9.386;2022-12-05T08:05:12;19.65;;;11.85;;
44850;SDS011;30583;48.714;9.386;2022-12-05T08:07:39;21.02;;;12.32;;
44850;SDS011;30583;48.714;9.386;2022-12-05T08:10:05;20.55;;;12.00;;
44850;SDS011;30583;48.714;9.386;2022-12-05T08:12:32;27.48;;;19.50;;
44850;SDS011;30583;48.714;9.386;2022-12-05T08:14:57;26.27;;;16.48;;
44850;SDS011;30583;48.714;9.386;2022-12-05T08:17:23;20.08;;;12.63;;
44850;SDS011;30583;48.714;9.386;2022-12-05T08:19:48;20.73;;;11.05;;
44850;SDS011;30583;48.714;9.386;2022-12-05T08:22:14;24.58;;;14.43;;
44850;SDS011;30583;48.714;9.386;2022-12-05T08:24:39;29.85;;;18.17;;
44850;SDS011;30583;48.714;9.386;2022-12-05T08:27:05;31.70;;;21.35;;
44850;SDS011;30583;48.714;9.386;2022-12-05T08:29:31;44.45;;;28.10;;
44850;SDS011;30583;48.714;9.386;2022-12-05T08:31:56;31.13;;;18.73;;
44850;SDS011;30583;48.714;9.386;2022-12-05T08:34:22;41.03;;;26.92;;
44850;SDS011;30583;48.714;9.386;2022-12-05T08:36:48;24.88;;;14.50;;
44850;SDS011;30583;48.714;9.386;2022-12-05T08:39:16;19.13;;;10.90;;
44850;SDS011;30583;48.714;9.386;2022-12-05T08:41:43;18.52;;;10.68;;
44850;SDS011;30583;48.714;9.386;2022-12-05T08:44:11;18.08;;;11.30;;
44850;SDS011;30583;48.714;9.386;2022-12-05T08:46:40;18.60;;;11.40;;
44850;SDS011;30583;48.714;9.386;2022-12-05T08:49:07;17.15;;;10.05;;
44850;SDS011;30583;48.714;9.386;2022-12-05T08:51:34;17.67;;;10.25;;
44850;SDS011;30583;48.714;9.386;2022-12-05T08:54:02;18.30;;;10.60;;
44850;SDS011;30583;48.714;9.386;2022-12-05T08:56:29;18.90;;;11.07;;
44850;SDS011;30583;48.714;9.386;2022-12-05T08:58:57;17.33;;;10.60;;
44850;SDS011;30583;48.714;9.386;2022-12-05T09:01:23;18.40;;;10.70;;
44850;SDS011;30583;48.714;9.386;2022-12-05T09:03:54;18.20;;;10.65;;
44850;SDS011;30583;48.714;9.386;2022-12-05T09:06:21;19.50;;;10.80;;
44850;SDS011;30583;48.714;9.386;2022-12-05T09:08:48;18.33;;;10.38;;
44850;SDS011;30583;48.714;9.386;2022-12-05T09:11:19;17.77;;;11.00;;
44850;SDS011;30583;48.714;9.386;2022-12-05T09:13:48;16.77;;;9.73;;
44850;SDS011;30583;48.714;9.386;2022-12-05T09:16:21;16.98;;;10.10;;
44850;SDS011;30583;48.714;9.386;2022-12-05T09:18:49;18.95;;;10.13;;
44850;SDS011;30583;48.714;9.386;2022-12-05T09:21:16;18.10;;;10.50;;
44850;SDS011;30583;48.714;9.386;2022-12-05T09:23:44;19.70;;;11.45;;
44850;SDS011;30583;48.714;9.386;2022-12-05T09:26:11;18.55;;;11.15;;
44850;SDS011;30583;48.714;9.386;2022-12-05T09:28:38;21.95;;;13.40;;
44850;SDS011;30583;48.714;9.386;2022-12-05T09:31:05;19.05;;;9.90;;
44850;SDS011;30583;48.714;9.386;2022-12-05T09:33:33;14.70;;;9.73;;
44850;SDS011;30583;48.714;9.386;2022-12-05T09:36:33;16.35;;;9.63;;
44850;SDS011;30583;48.714;9.386;2022-12-05T09:38:54;16.55;;;9.07;;
44850;SDS011;30583;48.714;9.386;2022-12-05T09:44:42;13.88;;;8.38;;
44850;SDS011;30583;48.714;9.386;2022-12-05T09:47:32;14.75;;;8.70;;
44850;SDS011;30583;48.714;9.386;2022-12-05T09:52:40;13.73;;;8.77;;
44850;SDS011;30583;48.714;9.386;2022-12-05T09:55:45;14.77;;;9.05;;
44850;SDS011;30583;48.714;9.386;2022-12-05T09:58:32;13.18;;;9.40;;
44850;SDS011;30583;48.714;9.386;2022-12-05T10:01:40;13.50;;;7.88;;
44850;SDS011;30583;48.714;9.386;2022-12-05T10:17:40;15.23;;;9.30;;
44850;SDS011;30583;48.714;9.386;2022-12-05T10:20:12;15.25;;;9.95;;
44850;SDS011;30583;48.714;9.386;2022-12-05T10:22:46;15.43;;;9.73;;
44850;SDS011;30583;48.714;9.386;2022-12-05T10:25:17;19.48;;;11.18;;
44850;SDS011;30583;48.714;9.386;2022-12-05T10:27:49;21.42;;;11.98;;
44850;SDS011;30583;48.714;9.386;2022-12-05T10:32:54;16.67;;;10.68;;
44850;SDS011;30583;48.714;9.386;2022-12-05T10:35:25;27.15;;;17.10;;
44850;SDS011;30583;48.714;9.386;2022-12-05T10:37:57;20.48;;;12.52;;
44850;SDS011;30583;48.714;9.386;2022-12-05T10:40:32;22.50;;;12.27;;
44850;SDS011;30583;48.714;9.386;2022-12-05T10:43:03;20.48;;;12.00;;
44850;SDS011;30583;48.714;9.386;2022-12-05T10:45:32;16.90;;;11.13;;
44850;SDS011;30583;48.714;9.386;2022-12-05T10:47:59;15.57;;;8.52;;
44850;SDS011;30583;48.714;9.386;2022-12-05T10:50:31;14.82;;;8.85;;
44850;SDS011;30583;48.714;9.386;2022-12-05T10:53:01;16.38;;;9.02;;
44850;SDS011;30583;48.714;9.386;2022-12-05T10:55:31;13.50;;;8.63;;
44850;SDS011;30583;48.714;9.386;2022-12-05T10:58:14;14.93;;;8.75;;
44850;SDS011;30583;48.714;9.386;2022-12-05T11:00:42;17.95;;;9.25;;
44850;SDS011;30583;48.714;9.386;2022-12-05T11:06:13;13.75;;;9.40;;
44850;SDS011;30583;48.714;9.386;2022-12-05T11:08:41;12.02;;;8.82;;
44850;SDS011;30583;48.714;9.386;2022-12-05T11:11:19;14.68;;;9.27;;
44850;SDS011;30583;48.714;9.386;2022-12-05T11:13:51;16.60;;;10.07;;
44850;SDS011;30583;48.714;9.386;2022-12-05T11:16:25;16.25;;;8.82;;
44850;SDS011;30583;48.714;9.386;2022-12-05T11:19:22;13.38;;;8.82;;
44850;SDS011;30583;48.714;9.386;2022-12-05T11:21:52;12.82;;;8.38;;
44850;SDS011;30583;48.714;9.386;2022-12-05T11:24:19;12.57;;;8.65;;
44850;SDS011;30583;48.714;9.386;2022-12-05T11:26:51;15.50;;;9.45;;
44850;SDS011;30583;48.714;9.386;2022-12-05T11:29:34;18.23;;;11.43;;
44850;SDS011;30583;48.714;9.386;2022-12-05T11:32:03;16.73;;;9.80;;
44850;SDS011;30583;48.714;9.386;2022-12-05T11:34:32;14.85;;;9.07;;
44850;SDS011;30583;48.714;9.386;2022-12-05T11:37:05;14.00;;;9.07;;
44850;SDS011;30583;48.714;9.386;2022-12-05T11:39:40;15.80;;;10.18;;
44850;SDS011;30583;48.714;9.386;2022-12-05T11:44:54;27.02;;;15.23;;
44850;SDS011;30583;48.714;9.386;2022-12-05T11:53:46;54.75;;;27.08;;
44850;SDS011;30583;48.714;9.386;2022-12-05T12:07:35;18.75;;;10.15;;
44850;SDS011;30583;48.714;9.386;2022-12-05T12:16:11;18.83;;;10.60;;
44850;SDS011;30583;48.714;9.386;2022-12-05T12:19:09;17.90;;;12.52;;
44850;SDS011;30583;48.714;9.386;2022-12-05T12:32:38;14.55;;;9.85;;
44850;SDS011;30583;48.714;9.386;2022-12-05T12:38:35;15.23;;;9.80;;
44850;SDS011;30583;48.714;9.386;2022-12-05T12:46:49;18.25;;;9.18;;
44850;SDS011;30583;48.714;9.386;2022-12-05T12:55:32;15.48;;;9.68;;
44850;SDS011;30583;48.714;9.386;2022-12-05T12:58:05;15.75;;;9.20;;
44850;SDS011;30583;48.714;9.386;2022-12-05T13:03:40;14.35;;;9.68;;
44850;SDS011;30583;48.714;9.386;2022-12-05T13:06:27;19.02;;;9.02;;
44850;SDS011;30583;48.714;9.386;2022-12-05T13:09:07;16.25;;;10.93;;
44850;SDS011;30583;48.714;9.386;2022-12-05T13:11:45;16.40;;;9.10;;
44850;SDS011;30583;48.714;9.386;2022-12-05T13:14:12;14.15;;;8.80;;
44850;SDS011;30583;48.714;9.386;2022-12-05T13:16:42;13.82;;;8.88;;
44850;SDS011;30583;48.714;9.386;2022-12-05T13:19:27;13.77;;;8.90;;
44850;SDS011;30583;48.714;9.386;2022-12-05T13:22:01;15.73;;;9.00;;
44850;SDS011;30583;48.714;9.386;2022-12-05T13:24:27;14.48;;;8.98;;
44850;SDS011;30583;48.714;9.386;2022-12-05T13:26:55;17.92;;;11.00;;
44850;SDS011;30583;48.714;9.386;2022-12-05T13:29:40;18.65;;;9.93;;
44850;SDS011;30583;48.714;9.386;2022-12-05T13:32:26;13.77;;;8.55;;
44850;SDS011;30583;48.714;9.386;2022-12-05T13:34:56;14.95;;;8.98;;
44850;SDS011;30583;48.714;9.386;2022-12-05T13:37:24;14.27;;;9.00;;
44850;SDS011;30583;48.714;9.386;2022-12-05T13:43:14;13.57;;;7.45;;
44850;SDS011;30583;48.714;9.386;2022-12-05T13:45:50;15.30;;;9.57;;
44850;SDS011;30583;48.714;9.386;2022-12-05T13:48:30;31.10;;;12.50;;
44850;SDS011;30583;48.714;9.386;2022-12-05T13:53:57;9.88;;;6.40;;
44850;SDS011;30583;48.714;9.386;2022-12-05T13:56:51;6.18;;;3.90;;
44850;SDS011;30583;48.714;9.386;2022-12-05T14:05:53;4.32;;;2.35;;
44850;SDS011;30583;48.714;9.386;2022-12-05T14:15:45;4.35;;;2.80;;
44850;SDS011;30583;48.714;9.386;2022-12-05T14:18:30;5.75;;;2.50;;
44850;SDS011;30583;48.714;9.386;2022-12-05T14:26:37;6.73;;;3.67;;
44850;SDS011;30583;48.714;9.386;2022-12-05T14:34:48;7.35;;;2.95;;
44850;SDS011;30583;48.714;9.386;2022-12-05T14:39:49;5.00;;;2.92;;
44850;SDS011;30583;48.714;9.386;2022-12-05T14:42:22;4.88;;;2.55;;
44850;SDS011;30583;48.714;9.386;2022-12-05T14:44:51;5.07;;;2.83;;
44850;SDS011;30583;48.714;9.386;2022-12-05T14:47:29;4.63;;;2.60;;
44850;SDS011;30583;48.714;9.386;2022-12-05T14:49:58;4.60;;;3.10;;
44850;SDS011;30583;48.714;9.386;2022-12-05T14:52:43;6.35;;;2.60;;
44850;SDS011;30583;48.714;9.386;2022-12-05T14:55:12;6.20;;;2.88;;
44850;SDS011;30583;48.714;9.386;2022-12-05T14:57:45;3.72;;;2.47;;
44850;SDS011;30583;48.714;9.386;2022-12-05T15:00:22;5.13;;;3.10;;
44850;SDS011;30583;48.714;9.386;2022-12-05T15:02:48;6.22;;;3.03;;
44850;SDS011;30583;48.714;9.386;2022-12-05T15:07:42;6.70;;;3.08;;
44850;SDS011;30583;48.714;9.386;2022-12-05T15:12:48;4.53;;;3.10;;
44850;SDS011;30583;48.714;9.386;2022-12-05T15:29:25;6.43;;;2.53;;
44850;SDS011;30583;48.714;9.386;2022-12-05T15:32:00;4.13;;;2.58;;
44850;SDS011;30583;48.714;9.386;2022-12-05T15:34:37;3.22;;;1.83;;
44850;SDS011;30583;48.714;9.386;2022-12-05T15:37:18;3.03;;;2.10;;
44850;SDS011;30583;48.714;9.386;2022-12-05T15:39:49;3.33;;;1.90;;
44850;SDS011;30583;48.714;9.386;2022-12-05T15:42:15;4.40;;;2.10;;
44850;SDS011;30583;48.714;9.386;2022-12-05T15:44:41;3.20;;;2.10;;
44850;SDS011;30583;48.714;9.386;2022-12-05T15:47:20;47.90;;;26.50;;
44850;SDS011;30583;48.714;9.386;2022-12-05T15:49:47;12.48;;;6.88;;
44850;SDS011;30583;48.714;9.386;2022-12-05T15:52:23;5.65;;;3.00;;
44850;SDS011;30583;48.714;9.386;2022-12-05T15:54:56;4.80;;;3.30;;
44850;SDS011;30583;48.714;9.386;2022-12-05T15:57:27;8.48;;;4.65;;
44850;SDS011;30583;48.714;9.386;2022-12-05T16:00:05;7.13;;;4.70;;
44850;SDS011;30583;48.714;9.386;2022-12-05T16:05:16;7.45;;;5.22;;
44850;SDS011;30583;48.714;9.386;2022-12-05T16:07:50;7.97;;;5.55;;
44850;SDS011;30583;48.714;9.386;2022-12-05T16:10:18;9.40;;;6.07;;
44850;SDS011;30583;48.714;9.386;2022-12-05T16:12:45;12.93;;;6.65;;
44850;SDS011;30583;48.714;9.386;2022-12-05T16:17:43;10.27;;;6.88;;
44850;SDS011;30583;48.714;9.386;2022-12-05T16:20:19;11.32;;;6.72;;
44850;SDS011;30583;48.714;9.386;2022-12-05T16:22:48;12.52;;;7.28;;
44850;SDS011;30583;48.714;9.386;2022-12-05T16:25:18;14.20;;;7.60;;
44850;SDS011;30583;48.714;9.386;2022-12-05T16:27:58;12.07;;;7.63;;
44850;SDS011;30583;48.714;9.386;2022-12-05T16:30:25;14.65;;;7.90;;
44850;SDS011;30583;48.714;9.386;2022-12-05T16:33:01;13.60;;;8.43;;
44850;SDS011;30583;48.714;9.386;2022-12-05T16:35:43;15.38;;;8.18;;
44850;SDS011;30583;48.714;9.386;2022-12-05T16:45:47;14.25;;;9.10;;
44850;SDS011;30583;48.714;9.386;2022-12-05T16:50:45;16.63;;;9.40;;
44850;SDS011;30583;48.714;9.386;2022-12-05T16:53:16;17.05;;;9.95;;
44850;SDS011;30583;48.714;9.386;2022-12-05T16:55:44;19.53;;;11.63;;
44850;SDS011;30583;48.714;9.386;2022-12-05T16:58:10;19.15;;;10.60;;
44850;SDS011;30583;48.714;9.386;2022-12-05T17:00:42;17.30;;;10.05;;
44850;SDS011;30583;48.714;9.386;2022-12-05T17:03:10;16.52;;;10.32;;
44850;SDS011;30583;48.714;9.386;2022-12-05T17:05:37;18.27;;;10.27;;
44850;SDS011;30583;48.714;9.386;2022-12-05T17:08:02;17.67;;;9.70;;
44850;SDS011;30583;48.714;9.386;2022-12-05T17:10:28;18.67;;;9.85;;
44850;SDS011;30583;48.714;9.386;2022-12-05T17:12:54;29.80;;;13.43;;
44850;SDS011;30583;48.714;9.386;2022-12-05T17:15:19;49.42;;;23.45;;
44850;SDS011;30583;48.714;9.386;2022-12-05T17:17:45;36.03;;;18.55;;
44850;SDS011;30583;48.714;9.386;2022-12-05T17:20:11;26.77;;;15.13;;
44850;SDS011;30583;48.714;9.386;2022-12-05T17:22:37;26.13;;;16.17;;
44850;SDS011;30583;48.714;9.386;2022-12-05T17:25:12;35.13;;;19.23;;
44850;SDS011;30583;48.714;9.386;2022-12-05T17:27:46;36.58;;;19.55;;
44850;SDS011;30583;48.714;9.386;2022-12-05T17:30:12;32.42;;;17.30;;
44850;SDS011;30583;48.714;9.386;2022-12-05T17:32:37;37.13;;;23.50;;
44850;SDS011;30583;48.714;9.386;2022-12-05T17:35:10;29.92;;;17.50;;
44850;SDS011;30583;48.714;9.386;2022-12-05T17:37:41;29.88;;;16.75;;
44850;SDS011;30583;48.714;9.386;2022-12-05T17:40:06;29.73;;;16.48;;
44850;SDS011;30583;48.714;9.386;2022-12-05T17:42:32;31.33;;;16.35;;
44850;SDS011;30583;48.714;9.386;2022-12-05T17:44:58;23.88;;;13.02;;
44850;SDS011;30583;48.714;9.386;2022-12-05T17:47:23;23.90;;;13.20;;
44850;SDS011;30583;48.714;9.386;2022-12-05T17:49:49;20.65;;;13.13;;
44850;SDS011;30583;48.714;9.386;2022-12-05T17:52:14;19.73;;;13.20;;
44850;SDS011;30583;48.714;9.386;2022-12-05T17:54:40;23.02;;;13.32;;
44850;SDS011;30583;48.714;9.386;2022-12-05T17:57:06;19.35;;;13.35;;
44850;SDS011;30583;48.714;9.386;2022-12-05T17:59:31;22.92;;;12.40;;
44850;SDS011;30583;48.714;9.386;2022-12-05T18:01:57;18.15;;;12.40;;